Time;durP1;ratioP1;P1;durP2;ratioP2;P2;SDS_P1;SDS_P2;PMS_P1;PMS_P2;Temp;Humidity;BMP_temperature;BMP_pressure;BME280_temperature;BME280_humidity;BME280_pressure;Samples;Min_cycle;Max_cycle;Signal;HPM_P1;HPM_P2
2022/07/16 00:01:23;;;;;;;3.83;1.55;;;16.90;99.90;;;;;;5060636;28;20040;-72
2022/07/16 00:03:55;;;;;;;3.05;1.90;;;16.90;99.90;;;;;;5058077;28;20078;-72
2022/07/16 00:06:22;;;;;;;2.13;1.70;;;16.90;99.90;;;;;;5062584;28;20471;-71
2022/07/16 00:08:47;;;;;;;4.10;1.80;;;16.90;99.90;;;;;;5059658;28;20044;-71
2022/07/16 00:11:15;;;;;;;3.00;1.70;;;16.90;99.90;;;;;;5060235;28;20501;-72
2022/07/16 00:13:41;;;;;;;2.75;1.95;;;16.90;99.90;;;;;;5058668;28;20037;-71
2022/07/16 00:16:08;;;;;;;2.85;2.00;;;16.90;99.90;;;;;;5057543;28;20029;-71
2022/07/16 00:19:35;;;;;;;2.77;1.60;;;16.80;99.90;;;;;;5062778;28;20484;-71
2022/07/16 00:21:30;;;;;;;4.43;1.88;;;16.80;99.90;;;;;;5050477;28;20040;-70
2022/07/16 00:23:55;;;;;;;2.50;1.80;;;16.80;99.90;;;;;;5057148;28;20033;-71
2022/07/16 00:26:21;;;;;;;3.00;1.90;;;16.80;99.90;;;;;;5057470;28;20036;-71
2022/07/16 00:28:47;;;;;;;2.08;1.77;;;16.80;99.90;;;;;;5058656;28;20051;-73
2022/07/16 00:31:13;;;;;;;2.13;1.70;;;16.80;99.90;;;;;;5063328;28;20478;-71
2022/07/16 00:33:39;;;;;;;2.50;1.60;;;16.80;99.90;;;;;;5060919;28;20048;-68
2022/07/16 00:36:05;;;;;;;5.85;1.80;;;16.80;99.90;;;;;;5064951;28;20040;-68
2022/07/16 00:38:31;;;;;;;4.15;1.60;;;16.80;99.90;;;;;;5062331;28;20368;-69
2022/07/16 00:40:56;;;;;;;3.03;1.60;;;16.70;99.90;;;;;;5059663;28;20040;-68
2022/07/16 00:43:22;;;;;;;2.17;1.58;;;16.70;99.90;;;;;;5060617;28;20090;-69
2022/07/16 00:45:48;;;;;;;3.58;1.80;;;16.70;99.90;;;;;;5062712;28;20388;-68
2022/07/16 00:48:14;;;;;;;3.10;1.73;;;16.70;99.90;;;;;;5061603;28;20068;-71
2022/07/16 00:50:41;;;;;;;5.20;1.80;;;16.70;99.90;;;;;;5062028;28;20227;-69
2022/07/16 00:53:10;;;;;;;6.47;1.63;;;16.70;99.90;;;;;;5057270;28;20514;-69
2022/07/16 00:55:37;;;;;;;1.85;1.70;;;16.60;99.90;;;;;;5058284;28;20036;-71
2022/07/16 00:58:02;;;;;;;4.40;2.10;;;16.60;99.90;;;;;;5058274;28;20479;-69
2022/07/16 01:00:29;;;;;;;3.40;1.77;;;16.60;99.90;;;;;;5053975;28;20052;-69
2022/07/16 01:02:56;;;;;;;3.30;1.90;;;16.60;99.90;;;;;;5059470;28;20348;-71
2022/07/16 01:05:22;;;;;;;3.13;2.00;;;16.60;99.90;;;;;;5057042;28;20499;-72
2022/07/16 01:07:48;;;;;;;2.03;1.88;;;16.60;99.90;;;;;;5043894;28;20074;-73
2022/07/16 01:10:14;;;;;;;4.03;2.10;;;16.60;99.90;;;;;;5058526;28;20067;-72
2022/07/16 01:12:40;;;;;;;2.17;2.03;;;16.60;99.90;;;;;;5061397;28;20037;-72
2022/07/16 01:15:06;;;;;;;2.83;2.33;;;16.60;99.90;;;;;;5060664;28;20071;-72
2022/07/16 01:17:32;;;;;;;4.68;2.60;;;16.60;99.90;;;;;;5062141;28;20781;-72
2022/07/16 01:19:58;;;;;;;3.85;2.63;;;16.60;99.90;;;;;;5057572;28;20053;-71
2022/07/16 01:22:25;;;;;;;4.43;2.50;;;16.60;99.90;;;;;;5061614;28;20052;-72
2022/07/16 01:24:51;;;;;;;3.77;2.40;;;16.60;99.90;;;;;;5060440;28;20036;-71
2022/07/16 01:27:19;;;;;;;3.35;2.45;;;16.60;99.90;;;;;;5055960;28;20079;-72
2022/07/16 01:29:44;;;;;;;4.50;2.53;;;16.60;99.90;;;;;;5055069;28;20075;-72
2022/07/16 01:32:10;;;;;;;4.35;2.17;;;16.60;99.90;;;;;;5060537;28;20064;-72
2022/07/16 01:34:37;;;;;;;3.25;2.10;;;16.60;99.90;;;;;;5057249;28;20040;-72
2022/07/16 01:37:05;;;;;;;4.82;2.70;;;16.60;99.90;;;;;;5055465;28;20045;-73
2022/07/16 01:39:33;;;;;;;3.67;2.10;;;16.60;99.90;;;;;;5056908;28;20080;-72
2022/07/16 01:42:00;;;;;;;;;;;16.60;99.90;;;;;;5060460;28;20075;-72
2022/07/16 01:44:27;;;;;;;2.88;2.28;;;16.60;99.90;;;;;;5064504;28;19921;-73
2022/07/16 01:46:54;;;;;;;2.50;2.30;;;16.70;99.90;;;;;;5065005;28;20163;-73
2022/07/16 01:49:20;;;;;;;5.25;2.20;;;16.60;99.90;;;;;;5065027;28;20377;-71
2022/07/16 01:51:46;;;;;;;3.22;2.20;;;16.60;99.90;;;;;;5061567;28;20056;-72
2022/07/16 01:54:12;;;;;;;3.70;2.28;;;16.70;99.90;;;;;;5065795;28;20487;-73
2022/07/16 01:56:38;;;;;;;3.22;2.03;;;16.60;99.90;;;;;;5058226;28;20049;-71
2022/07/16 01:59:04;;;;;;;5.13;2.15;;;16.70;99.90;;;;;;5065797;28;20040;-70
2022/07/16 02:01:29;;;;;;;3.17;2.35;;;16.60;99.90;;;;;;5065699;28;20043;-70
2022/07/16 02:03:55;;;;;;;3.53;2.15;;;16.60;99.90;;;;;;5066373;28;20483;-70
2022/07/16 02:06:21;;;;;;;3.10;2.22;;;16.60;99.90;;;;;;5063353;28;20061;-70
2022/07/16 02:08:46;;;;;;;3.55;2.30;;;16.50;99.90;;;;;;5061465;28;20163;-71
2022/07/16 02:11:12;;;;;;;3.05;2.35;;;16.40;99.90;;;;;;5062484;28;20410;-70
2022/07/16 02:13:38;;;;;;;3.83;2.45;;;16.30;99.90;;;;;;5065812;28;20032;-71
2022/07/16 02:16:04;;;;;;;3.55;2.47;;;16.30;99.90;;;;;;5060103;28;20063;-70
2022/07/16 02:18:29;;;;;;;3.22;2.45;;;16.30;99.90;;;;;;5065804;28;20056;-68
2022/07/16 02:20:56;;;;;;;3.72;2.70;;;16.20;99.90;;;;;;5061045;28;20123;-69
2022/07/16 02:23:22;;;;;;;3.42;2.80;;;16.20;99.90;;;;;;5064041;28;20063;-67
2022/07/16 02:25:47;;;;;;;3.50;2.72;;;16.20;99.90;;;;;;5060797;28;20059;-69
2022/07/16 02:28:13;;;;;;;4.78;2.97;;;16.20;99.90;;;;;;5064322;28;20431;-69
2022/07/16 02:30:42;;;;;;;3.85;2.67;;;16.20;99.90;;;;;;5063430;28;20048;-68
2022/07/16 02:33:08;;;;;;;4.07;2.75;;;16.20;99.90;;;;;;5058775;28;20033;-69
2022/07/16 02:35:35;;;;;;;4.47;2.88;;;16.20;99.90;;;;;;5058402;28;20131;-69
2022/07/16 02:38:00;;;;;;;5.00;2.95;;;16.20;99.90;;;;;;5062145;28;20434;-68
2022/07/16 02:40:27;;;;;;;3.95;2.97;;;16.20;99.90;;;;;;5063576;28;20050;-70
2022/07/16 02:42:53;;;;;;;5.32;2.95;;;16.10;99.90;;;;;;5056884;28;20396;-69
2022/07/16 02:45:18;;;;;;;7.35;3.10;;;16.10;99.90;;;;;;5055463;28;20049;-69
2022/07/16 02:47:44;;;;;;;5.95;3.30;;;16.10;99.90;;;;;;5061797;28;20067;-69
2022/07/16 02:50:10;;;;;;;4.40;3.47;;;16.00;99.90;;;;;;5062889;28;20040;-69
2022/07/16 02:52:36;;;;;;;3.70;3.13;;;16.00;99.90;;;;;;5064534;28;20135;-69
2022/07/16 02:55:05;;;;;;;5.35;2.90;;;16.00;99.90;;;;;;5063148;28;20739;-69
2022/07/16 02:57:31;;;;;;;3.70;3.13;;;16.00;99.90;;;;;;5062898;28;20447;-69
2022/07/16 02:59:57;;;;;;;5.70;2.65;;;16.00;99.90;;;;;;5059828;28;20052;-69
2022/07/16 03:02:23;;;;;;;3.10;2.85;;;16.00;99.90;;;;;;5067330;28;20028;-69
2022/07/16 03:04:49;;;;;;;3.83;2.80;;;16.00;99.90;;;;;;5060268;28;20075;-69
2022/07/16 03:07:15;;;;;;;4.35;2.50;;;16.00;99.90;;;;;;5058948;28;20045;-68
2022/07/16 03:09:40;;;;;;;4.05;2.40;;;15.90;99.90;;;;;;5058401;28;20487;-69
2022/07/16 03:12:06;;;;;;;4.18;2.00;;;15.90;99.90;;;;;;5062229;28;20076;-70
2022/07/16 03:14:32;;;;;;;3.38;2.05;;;15.90;99.90;;;;;;5059328;28;20119;-68
2022/07/16 03:16:57;;;;;;;2.92;1.92;;;15.90;99.90;;;;;;5055813;28;20443;-69
2022/07/16 03:19:23;;;;;;;3.20;2.22;;;15.90;99.90;;;;;;5063793;28;20041;-69
2022/07/16 03:21:48;;;;;;;3.92;2.20;;;15.80;99.90;;;;;;5063241;28;20122;-68
2022/07/16 03:24:14;;;;;;;3.97;2.20;;;15.80;99.90;;;;;;5055961;28;20415;-70
2022/07/16 03:26:39;;;;;;;2.78;1.80;;;15.70;99.90;;;;;;5059250;28;20044;-73
2022/07/16 03:29:05;;;;;;;6.63;2.20;;;15.70;99.90;;;;;;5058730;28;20037;-71
2022/07/16 03:31:31;;;;;;;4.15;1.60;;;15.70;99.90;;;;;;5063330;28;20157;-70
2022/07/16 03:33:56;;;;;;;4.53;1.90;;;15.60;99.90;;;;;;5060547;28;20474;-70
2022/07/16 03:36:22;;;;;;;4.28;1.50;;;15.60;99.90;;;;;;5058745;28;20048;-71
2022/07/16 03:39:04;;;;;;;3.22;2.03;;;15.60;99.90;;;;;;5062878;28;20360;-70
2022/07/16 03:41:31;;;;;;;4.03;1.60;;;15.60;99.90;;;;;;5063006;28;20583;-72
2022/07/16 03:43:57;;;;;;;4.82;1.60;;;15.60;99.90;;;;;;5056737;28;20503;-70
2022/07/16 03:46:23;;;;;;;3.28;1.55;;;15.60;99.90;;;;;;5056422;28;20048;-71
2022/07/16 03:48:49;;;;;;;11.40;2.33;;;15.60;99.90;;;;;;5060718;28;20335;-71
2022/07/16 03:51:14;;;;;;;4.47;1.52;;;15.60;99.90;;;;;;5060779;28;20491;-71
2022/07/16 03:53:40;;;;;;;3.50;1.65;;;15.60;99.90;;;;;;5061069;28;20075;-69
2022/07/16 03:56:06;;;;;;;4.28;1.50;;;15.60;99.90;;;;;;5057517;28;20068;-69
2022/07/16 03:58:32;;;;;;;3.42;1.50;;;15.70;99.90;;;;;;5062825;28;20044;-69
2022/07/16 04:00:57;;;;;;;3.97;1.80;;;15.70;99.90;;;;;;5057771;28;20048;-70
2022/07/16 04:03:23;;;;;;;4.30;2.35;;;15.80;99.90;;;;;;5062627;28;20109;-70
2022/07/16 04:05:50;;;;;;;3.05;1.33;;;15.80;99.90;;;;;;5059543;28;20072;-69
2022/07/16 04:08:16;;;;;;;4.07;1.33;;;15.80;99.90;;;;;;5060055;28;20132;-68
2022/07/16 04:10:42;;;;;;;3.50;1.23;;;15.90;99.90;;;;;;5065468;28;21267;-69
2022/07/16 04:13:08;;;;;;;3.00;1.50;;;15.90;99.90;;;;;;5062118;28;20036;-70
2022/07/16 04:15:34;;;;;;;5.32;1.55;;;16.00;99.90;;;;;;5060336;28;20047;-70
2022/07/16 04:17:59;;;;;;;3.90;1.63;;;16.00;99.90;;;;;;5061009;28;20043;-70
2022/07/16 04:20:25;;;;;;;6.45;1.48;;;16.10;99.90;;;;;;5056910;28;20416;-71
2022/07/16 04:22:50;;;;;;;3.72;1.63;;;16.10;99.90;;;;;;5058807;28;20060;-71
2022/07/16 04:25:16;;;;;;;4.90;1.90;;;16.20;99.90;;;;;;5060395;28;20041;-71
2022/07/16 04:27:43;;;;;;;3.80;1.50;;;16.20;99.90;;;;;;5060971;28;20052;-70
2022/07/16 04:30:09;;;;;;;3.92;1.75;;;16.20;99.90;;;;;;5063061;28;20037;-71
2022/07/16 04:32:40;;;;;;;3.07;1.60;;;16.20;99.90;;;;;;5064761;28;20053;-71
2022/07/16 04:35:08;;;;;;;3.60;1.63;;;16.20;99.90;;;;;;5062394;28;20429;-71
2022/07/16 04:37:33;;;;;;;5.25;1.70;;;16.10;99.90;;;;;;5060343;28;20571;-71
2022/07/16 04:39:59;;;;;;;3.88;1.58;;;16.10;99.90;;;;;;5058935;28;20119;-71
2022/07/16 04:42:25;;;;;;;4.68;1.60;;;16.40;99.90;;;;;;5056704;28;20070;-72
2022/07/16 04:44:51;;;;;;;3.10;1.58;;;18.10;99.90;;;;;;5061394;28;20071;-72
2022/07/16 04:47:16;;;;;;;5.20;1.52;;;18.60;99.90;;;;;;5058392;28;20126;-72
2022/07/16 04:49:42;;;;;;;6.30;1.38;;;19.50;99.90;;;;;;5055896;28;20468;-71
2022/07/16 04:52:07;;;;;;;4.28;1.92;;;20.30;99.90;;;;;;5063685;28;20057;-72
2022/07/16 04:54:33;;;;;;;4.03;1.40;;;21.00;99.90;;;;;;5057061;28;20052;-72
2022/07/16 04:56:59;;;;;;;4.13;1.30;;;20.50;99.90;;;;;;5060616;28;20032;-71
2022/07/16 04:59:25;;;;;;;3.45;1.35;;;20.00;99.90;;;;;;5059194;28;20399;-71
2022/07/16 05:01:50;;;;;;;5.65;1.40;;;20.40;99.90;;;;;;5060697;28;20037;-71
2022/07/16 05:04:16;;;;;;;3.13;1.42;;;21.00;99.90;;;;;;5058909;28;20082;-71
2022/07/16 05:06:42;;;;;;;3.03;1.40;;;21.90;99.90;;;;;;5061570;28;20528;-70
2022/07/16 05:09:07;;;;;;;4.05;1.33;;;22.30;99.90;;;;;;5062114;28;20131;-71
2022/07/16 05:11:33;;;;;;;4.38;1.38;;;22.80;99.90;;;;;;5061294;28;20040;-71
2022/07/16 05:13:59;;;;;;;3.13;1.30;;;23.30;99.90;;;;;;5057305;28;20127;-70
2022/07/16 05:16:24;;;;;;;3.97;1.23;;;23.70;99.90;;;;;;5058537;28;20500;-71
2022/07/16 05:18:50;;;;;;;3.72;1.30;;;23.80;99.90;;;;;;5056637;28;20137;-71
2022/07/16 05:21:16;;;;;;;4.57;1.50;;;24.60;99.90;;;;;;5054949;28;20039;-71
2022/07/16 05:23:42;;;;;;;5.40;1.35;;;25.00;99.90;;;;;;5059178;28;20107;-71
2022/07/16 05:26:08;;;;;;;4.18;1.30;;;25.40;99.90;;;;;;5037150;28;20080;-71
2022/07/16 05:28:33;;;;;;;4.28;1.27;;;25.40;99.90;;;;;;5058414;28;20059;-72
2022/07/16 05:30:59;;;;;;;5.88;1.40;;;25.50;99.20;;;;;;5064629;28;20037;-69
2022/07/16 05:33:25;;;;;;;2.83;1.30;;;25.90;98.50;;;;;;5068336;28;20449;-70
2022/07/16 05:35:51;;;;;;;6.32;1.30;;;25.70;96.70;;;;;;5056572;28;20067;-71
2022/07/16 05:38:17;;;;;;;5.32;1.17;;;25.80;96.50;;;;;;5060526;28;20131;-69
2022/07/16 05:40:43;;;;;;;2.10;1.02;;;25.70;96.00;;;;;;5066948;28;20477;-69
2022/07/16 05:43:10;;;;;;;3.60;0.98;;;25.90;96.00;;;;;;5061262;28;20078;-69
2022/07/16 05:45:35;;;;;;;3.70;1.40;;;25.40;94.40;;;;;;5064888;28;20467;-70
2022/07/16 05:48:01;;;;;;;3.97;1.30;;;25.30;94.10;;;;;;5059631;28;20049;-70
2022/07/16 05:50:26;;;;;;;5.80;1.55;;;25.50;94.00;;;;;;5058650;28;20053;-75
2022/07/16 05:52:52;;;;;;;5.57;1.40;;;25.10;94.20;;;;;;5058259;28;20051;-71
2022/07/16 05:55:17;;;;;;;3.67;1.48;;;24.80;93.90;;;;;;5060219;28;20488;-70
2022/07/16 05:57:43;;;;;;;4.05;1.25;;;24.50;93.90;;;;;;5065771;28;20136;-70
2022/07/16 06:00:10;;;;;;;7.15;2.05;;;24.30;94.00;;;;;;5069463;28;20041;-69
2022/07/16 06:02:40;;;;;;;9.63;2.05;;;23.40;94.30;;;;;;5065552;28;20090;-69
2022/07/16 06:05:06;;;;;;;2.92;1.23;;;23.30;95.10;;;;;;5067602;28;20043;-69
2022/07/16 06:07:32;;;;;;;4.43;1.42;;;23.40;95.20;;;;;;5066898;28;20077;-69
2022/07/16 06:09:58;;;;;;;4.03;1.33;;;22.70;95.00;;;;;;5063934;28;20145;-68
2022/07/16 06:12:23;;;;;;;3.90;1.40;;;21.70;95.20;;;;;;5065958;28;20380;-68
2022/07/16 06:14:49;;;;;;;7.50;1.42;;;21.60;96.40;;;;;;5069626;28;20373;-67
2022/07/16 06:17:15;;;;;;;5.57;1.30;;;21.20;96.80;;;;;;5063651;28;20083;-68
2022/07/16 06:19:43;;;;;;;6.70;1.80;;;20.90;97.50;;;;;;5052878;28;20056;-68
2022/07/16 06:22:10;;;;;;;4.57;1.50;;;21.60;97.60;;;;;;5059639;28;20215;-68
2022/07/16 06:24:36;;;;;;;6.45;1.50;;;22.10;97.00;;;;;;5068995;28;20434;-69
2022/07/16 06:27:02;;;;;;;5.05;1.25;;;22.30;96.80;;;;;;5062694;28;20051;-69
2022/07/16 06:29:28;;;;;;;5.05;1.20;;;22.40;95.90;;;;;;5066845;28;20046;-69
2022/07/16 06:31:54;;;;;;;4.45;1.15;;;22.40;95.70;;;;;;5067399;28;20119;-69
2022/07/16 06:34:20;;;;;;;4.63;1.40;;;21.10;95.60;;;;;;5076551;28;20066;-69
2022/07/16 06:36:45;;;;;;;3.22;1.00;;;21.30;96.10;;;;;;5069913;28;20040;-68
2022/07/16 06:39:11;;;;;;;4.10;1.10;;;20.90;95.50;;;;;;5055985;28;20041;-69
2022/07/16 06:41:37;;;;;;;4.00;1.10;;;21.00;95.70;;;;;;5065110;28;20720;-67
2022/07/16 06:44:09;;;;;;;4.95;1.15;;;21.20;96.20;;;;;;5073158;28;20243;-66
2022/07/16 06:46:35;;;;;;;5.45;1.30;;;21.10;95.70;;;;;;5066691;28;20056;-66
2022/07/16 06:49:02;;;;;;;7.63;5.10;;;21.00;95.70;;;;;;5066485;28;20084;-66
2022/07/16 06:51:28;;;;;;;2.17;1.00;;;20.90;95.40;;;;;;5064867;28;20048;-69
2022/07/16 06:53:53;;;;;;;4.20;1.20;;;20.90;95.90;;;;;;5076520;28;20068;-67
2022/07/16 06:56:19;;;;;;;3.75;1.27;;;21.20;95.50;;;;;;5079224;28;20064;-68
2022/07/16 06:58:45;;;;;;;4.03;1.48;;;21.30;94.90;;;;;;5071352;28;20069;-68
2022/07/16 07:01:11;;;;;;;3.83;1.10;;;21.70;94.30;;;;;;5069264;28;20072;-68
2022/07/16 07:03:40;;;;;;;2.28;0.60;;;22.40;93.80;;;;;;5065789;28;20040;-66
2022/07/16 07:06:07;;;;;;;5.18;1.38;;;21.70;91.80;;;;;;5064682;28;20071;-67
2022/07/16 07:08:32;;;;;;;2.00;1.00;;;21.30;92.60;;;;;;5062216;28;20059;-68
2022/07/16 07:10:59;;;;;;;2.50;0.95;;;21.80;92.50;;;;;;5059669;28;20045;-67
2022/07/16 07:13:26;;;;;;;5.13;1.20;;;22.20;92.30;;;;;;5065902;28;20102;-69
2022/07/16 07:15:52;;;;;;;3.33;1.00;;;22.60;92.20;;;;;;5062071;28;20985;-69
2022/07/16 07:18:17;;;;;;;2.45;0.90;;;21.90;91.40;;;;;;5056119;28;20067;-68
2022/07/16 07:20:43;;;;;;;4.75;1.02;;;21.70;91.70;;;;;;5055017;28;20048;-68
2022/07/16 07:23:10;;;;;;;2.60;0.80;;;20.90;92.30;;;;;;5054980;28;20484;-68
2022/07/16 07:25:36;;;;;;;3.95;1.00;;;20.80;93.30;;;;;;5056457;28;20040;-69
2022/07/16 07:28:02;;;;;;;3.40;1.00;;;21.20;93.20;;;;;;5057285;28;20044;-68
2022/07/16 07:30:28;;;;;;;5.93;1.25;;;21.40;93.20;;;;;;5061561;28;20140;-69
2022/07/16 07:32:53;;;;;;;5.30;1.10;;;22.00;93.30;;;;;;5060295;28;20140;-67
2022/07/16 07:35:19;;;;;;;2.97;1.08;;;21.10;93.00;;;;;;5058405;28;20040;-68
2022/07/16 07:37:45;;;;;;;4.78;1.63;;;20.80;94.00;;;;;;5049008;28;20542;-69
2022/07/16 07:40:11;;;;;;;3.65;1.27;;;20.50;93.50;;;;;;5047480;28;20117;-69
2022/07/16 07:42:36;;;;;;;3.38;1.40;;;20.10;93.80;;;;;;5048774;28;20413;-68
2022/07/16 07:45:04;;;;;;;7.30;1.40;;;20.00;94.10;;;;;;5049593;28;20051;-69
2022/07/16 07:47:29;;;;;;;6.60;1.70;;;20.20;99.10;;;;;;5047114;28;20053;-70
2022/07/16 07:49:55;;;;;;;4.00;1.20;;;20.80;94.20;;;;;;5041204;28;20679;-68
2022/07/16 07:52:20;;;;;;;3.80;1.38;;;20.50;93.50;;;;;;5042655;28;20048;-69
2022/07/16 07:54:46;;;;;;;2.72;1.30;;;20.40;93.70;;;;;;5049396;28;20040;-69
2022/07/16 07:57:12;;;;;;;2.08;0.70;;;20.50;93.40;;;;;;5049721;28;20485;-70
2022/07/16 07:59:38;;;;;;;5.50;1.00;;;19.80;92.50;;;;;;5053491;28;20209;-68
2022/07/16 08:02:03;;;;;;;5.10;0.90;;;19.50;93.20;;;;;;5052146;28;20123;-69
2022/07/16 08:04:29;;;;;;;4.70;0.90;;;19.30;93.60;;;;;;5054246;28;20369;-70
2022/07/16 08:06:54;;;;;;;4.28;1.08;;;18.80;93.60;;;;;;5054278;28;20044;-69
2022/07/16 08:09:20;;;;;;;3.63;1.15;;;18.70;94.10;;;;;;5056287;28;20040;-69
2022/07/16 08:11:45;;;;;;;3.42;1.02;;;18.60;94.30;;;;;;5057062;28;20043;-68
2022/07/16 08:14:11;;;;;;;7.10;1.30;;;18.90;95.10;;;;;;5056773;28;20045;-69
2022/07/16 08:16:37;;;;;;;5.53;1.55;;;18.80;94.80;;;;;;5054502;28;20500;-69
2022/07/16 08:19:02;;;;;;;2.70;1.20;;;18.90;94.40;;;;;;5055790;28;20049;-69
2022/07/16 08:21:28;;;;;;;5.63;1.20;;;18.80;94.30;;;;;;5054935;28;20965;-69
2022/07/16 08:26:38;;;;;;;4.40;1.10;;;19.20;94.40;;;;;;5056879;28;20068;-68
2022/07/16 08:29:04;;;;;;;3.70;1.10;;;19.30;94.20;;;;;;5062864;28;20066;-69
2022/07/16 08:31:30;;;;;;;4.60;0.98;;;19.10;93.70;;;;;;5062053;28;20201;-69
2022/07/16 08:33:55;;;;;;;1.42;0.60;;;19.20;92.70;;;;;;5060608;28;20071;-68
2022/07/16 08:36:21;;;;;;;5.90;1.00;;;19.00;91.10;;;;;;5063662;28;20043;-69
2022/07/16 08:38:46;;;;;;;2.80;0.85;;;18.70;91.90;;;;;;5065570;28;20051;-70
2022/07/16 08:41:14;;;;;;;4.80;0.65;;;18.70;91.50;;;;;;5060847;28;20040;-69
2022/07/16 08:43:40;;;;;;;;;;;18.90;92.20;;;;;;5056536;28;20044;-68
2022/07/16 08:46:06;;;;;;;4.57;0.90;;;18.90;91.90;;;;;;5050133;28;19936;-67
2022/07/16 08:48:32;;;;;;;4.07;1.02;;;19.40;92.40;;;;;;5049992;28;20048;-69
2022/07/16 08:51:00;;;;;;;3.35;1.00;;;19.50;92.70;;;;;;5057768;28;20483;-69
2022/07/16 08:53:30;;;;;;;2.17;0.73;;;20.20;92.00;;;;;;5057387;28;20041;-69
2022/07/16 08:55:56;;;;;;;5.05;1.00;;;20.40;91.10;;;;;;5051144;28;20052;-70
2022/07/16 08:58:22;;;;;;;3.53;0.90;;;20.20;91.00;;;;;;5043318;28;20771;-69
2022/07/16 09:00:48;;;;;;;3.33;0.98;;;19.90;91.30;;;;;;5040008;28;20052;-71
2022/07/16 09:03:14;;;;;;;4.70;0.80;;;19.60;91.10;;;;;;5043289;28;20040;-70
2022/07/16 09:05:41;;;;;;;10.23;1.20;;;19.30;90.70;;;;;;5042010;28;20361;-69
2022/07/16 09:08:07;;;;;;;2.10;0.88;;;19.70;91.50;;;;;;5046203;28;20131;-70
2022/07/16 09:10:34;;;;;;;2.40;0.70;;;20.00;90.70;;;;;;5047703;28;20098;-70
2022/07/16 09:13:00;;;;;;;2.53;0.80;;;19.50;90.80;;;;;;5042624;28;20044;-70
2022/07/16 09:15:37;;;;;;;2.67;0.93;;;19.40;91.00;;;;;;5044122;28;20098;-70
2022/07/16 09:18:22;;;;;;;5.47;0.85;;;19.30;91.10;;;;;;5042344;28;20155;-69
2022/07/16 09:21:05;;;;;;;2.05;0.85;;;19.40;90.80;;;;;;5045714;28;20128;-70
2022/07/16 09:23:36;;;;;;;4.88;1.30;;;19.90;90.30;;;;;;5045835;28;20128;-69
2022/07/16 09:26:07;;;;;;;4.03;1.08;;;20.40;90.50;;;;;;5042069;28;20135;-72
2022/07/16 09:28:44;;;;;;;4.05;1.02;;;20.00;88.90;;;;;;5045589;28;20470;-69
2022/07/16 09:31:11;;;;;;;;;;;19.80;89.10;;;;;;5046321;28;20078;-71
2022/07/16 09:33:36;;;;;;;2.60;0.88;;;19.90;89.90;;;;;;5042001;28;19936;-71
2022/07/16 09:36:11;;;;;;;4.20;0.80;;;19.90;87.30;;;;;;5043323;28;20041;-71
2022/07/16 09:38:51;;;;;;;2.90;0.80;;;20.20;88.80;;;;;;5042201;28;20147;-70
2022/07/16 09:41:18;;;;;;;2.28;0.68;;;20.50;87.20;;;;;;5049181;28;20602;-70
2022/07/16 09:43:44;;;;;;;2.10;0.80;;;21.10;87.80;;;;;;5044946;28;20132;-70
2022/07/16 09:46:15;;;;;;;5.03;0.82;;;20.60;86.40;;;;;;5046626;28;20140;-71
2022/07/16 09:48:42;;;;;;;3.53;0.82;;;20.30;87.00;;;;;;5048153;28;20078;-70
2022/07/16 09:51:14;;;;;;;1.90;0.80;;;20.20;86.90;;;;;;5050515;28;20072;-71
2022/07/16 09:53:43;;;;;;;2.80;0.80;;;20.40;88.50;;;;;;5046184;28;20056;-71
2022/07/16 09:56:29;;;;;;;2.85;0.60;;;20.30;87.90;;;;;;5045510;28;20256;-73
2022/07/16 09:58:57;;;;;;;4.47;1.07;;;20.70;87.90;;;;;;5056925;28;20067;-69
2022/07/16 10:01:23;;;;;;;2.33;0.60;;;21.10;85.60;;;;;;5055506;28;20048;-70
2022/07/16 10:03:50;;;;;;;2.30;0.52;;;20.70;85.30;;;;;;5060722;28;20072;-69
2022/07/16 10:06:16;;;;;;;4.00;0.80;;;20.50;84.10;;;;;;5063836;28;20037;-70
2022/07/16 10:08:43;;;;;;;2.53;0.80;;;20.70;86.40;;;;;;5064112;28;20028;-70
2022/07/16 10:11:10;;;;;;;2.15;0.80;;;21.20;85.40;;;;;;5061642;28;20124;-71
2022/07/16 10:13:41;;;;;;;4.85;1.25;;;21.30;84.20;;;;;;5061879;28;20072;-69
2022/07/16 10:16:07;;;;;;;2.63;0.90;;;21.70;84.80;;;;;;5062061;28;20059;-70
2022/07/16 10:18:32;;;;;;;3.40;0.80;;;21.80;84.80;;;;;;5062337;28;20742;-70
2022/07/16 10:21:17;;;;;;;4.22;1.38;;;21.60;84.20;;;;;;5060782;28;20056;-70
2022/07/16 10:23:47;;;;;;;2.28;0.85;;;20.90;83.70;;;;;;5057176;28;20052;-68
2022/07/16 10:26:16;;;;;;;3.05;0.80;;;20.50;84.40;;;;;;5055440;28;20047;-70
2022/07/16 10:28:49;;;;;;;2.20;0.77;;;21.30;87.20;;;;;;5058697;28;20064;-70
2022/07/16 10:31:33;;;;;;;3.03;0.70;;;20.80;83.40;;;;;;5053548;28;20090;-68
2022/07/16 10:34:14;;;;;;;5.45;1.55;;;21.00;84.90;;;;;;5045271;28;20053;-69
2022/07/16 10:37:00;;;;;;;2.90;1.00;;;21.10;84.70;;;;;;5044262;28;20070;-69
2022/07/16 10:39:27;;;;;;;3.17;0.60;;;20.80;84.30;;;;;;5046304;28;20059;-69
2022/07/16 10:41:58;;;;;;;1.58;0.75;;;21.30;87.70;;;;;;5047631;28;20122;-69
2022/07/16 10:44:26;;;;;;;3.60;0.68;;;21.50;86.20;;;;;;5048375;28;20494;-69
2022/07/16 10:46:53;;;;;;;2.58;0.70;;;21.30;83.50;;;;;;5048322;28;20051;-69
2022/07/16 10:49:20;;;;;;;3.20;1.15;;;21.10;84.00;;;;;;5044413;28;20041;-70
2022/07/16 10:52:03;;;;;;;3.15;1.10;;;21.70;86.10;;;;;;5054584;28;20124;-72
2022/07/16 10:54:35;;;;;;;4.03;1.00;;;21.80;86.20;;;;;;5046585;28;20060;-70
2022/07/16 10:57:02;;;;;;;3.83;0.90;;;21.60;85.70;;;;;;5047843;28;20106;-72
2022/07/16 10:59:32;;;;;;;3.58;1.10;;;21.40;85.10;;;;;;5047512;28;20558;-72
2022/07/16 11:02:04;;;;;;;3.03;0.73;;;21.00;85.80;;;;;;5044512;28;20384;-71
2022/07/16 11:04:33;;;;;;;3.67;1.00;;;20.80;85.60;;;;;;5045962;28;20055;-71
2022/07/16 11:07:00;;;;;;;4.90;0.90;;;20.80;87.30;;;;;;5041531;28;20064;-68
2022/07/16 11:09:32;;;;;;;2.50;1.10;;;21.20;88.80;;;;;;5046097;28;20484;-69
2022/07/16 11:12:08;;;;;;;6.68;1.13;;;21.50;89.70;;;;;;5047033;28;20547;-68
2022/07/16 11:14:35;;;;;;;1.98;0.80;;;21.20;88.80;;;;;;5041880;28;20140;-74
2022/07/16 11:17:01;;;;;;;4.82;1.00;;;21.00;88.90;;;;;;5040008;28;22643;-69
2022/07/16 11:19:27;;;;;;;4.03;1.00;;;21.00;89.70;;;;;;5044825;28;20385;-69
2022/07/16 11:22:01;;;;;;;3.42;1.10;;;21.20;88.90;;;;;;5042431;28;20068;-69
2022/07/16 11:24:28;;;;;;;3.58;0.90;;;21.60;88.80;;;;;;5043048;28;20078;-69
2022/07/16 11:26:55;;;;;;;3.95;1.00;;;21.50;86.80;;;;;;5044112;28;20321;-69
2022/07/16 11:29:24;;;;;;;3.20;0.90;;;22.10;86.20;;;;;;5040098;28;20191;-70
2022/07/16 11:31:51;;;;;;;4.20;0.77;;;22.60;84.70;;;;;;5044989;28;20041;-69
2022/07/16 11:34:18;;;;;;;4.65;1.05;;;22.00;83.00;;;;;;5041715;28;20041;-70
2022/07/16 11:36:49;;;;;;;5.07;1.13;;;22.00;83.50;;;;;;5041832;28;20389;-70
2022/07/16 11:39:20;;;;;;;3.40;0.80;;;21.40;83.00;;;;;;5050331;28;20048;-70
2022/07/16 11:41:48;;;;;;;3.40;0.90;;;21.30;84.30;;;;;;5048616;28;20388;-70
2022/07/16 11:44:25;;;;;;;3.97;1.17;;;21.60;84.20;;;;;;5048548;28;20401;-70
2022/07/16 11:46:59;;;;;;;3.60;0.88;;;21.40;83.90;;;;;;5041831;28;20059;-70
2022/07/16 11:49:28;;;;;;;1.73;1.00;;;21.90;82.50;;;;;;5041748;28;20052;-69
2022/07/16 11:51:56;;;;;;;2.10;0.65;;;21.60;82.10;;;;;;5039932;28;20052;-68
2022/07/16 11:54:24;;;;;;;2.60;1.00;;;21.90;80.00;;;;;;5042268;28;23996;-69
2022/07/16 11:56:50;;;;;;;4.60;1.08;;;21.60;79.80;;;;;;5041919;28;20055;-69
2022/07/16 11:59:21;;;;;;;5.93;0.95;;;21.70;80.80;;;;;;5038631;28;20052;-69
2022/07/16 12:02:02;;;;;;;4.00;0.82;;;21.90;81.00;;;;;;5042684;28;20048;-68
2022/07/16 12:04:37;;;;;;;4.15;0.80;;;21.80;79.50;;;;;;5038969;28;20718;-69
2022/07/16 12:07:26;;;;;;;3.03;0.90;;;22.00;81.00;;;;;;5038763;28;20063;-69
2022/07/16 12:10:04;;;;;;;4.10;0.98;;;22.10;81.20;;;;;;5030448;28;20056;-70
2022/07/16 12:12:36;;;;;;;2.03;0.85;;;22.10;82.10;;;;;;5042668;28;20064;-70
2022/07/16 12:15:05;;;;;;;2.28;0.88;;;22.50;82.10;;;;;;5048387;28;20041;-70
2022/07/16 12:17:32;;;;;;;4.75;0.93;;;22.60;77.80;;;;;;5045309;28;20048;-70
2022/07/16 12:20:17;;;;;;;2.78;0.77;;;23.10;80.00;;;;;;5044453;28;21065;-69
2022/07/16 12:23:04;;;;;;;3.00;0.90;;;23.10;79.20;;;;;;5044983;28;21478;-69
2022/07/16 12:25:40;;;;;;;;;;;22.10;80.50;;;;;;5044633;28;20051;-69
2022/07/16 12:28:08;;;;;;;3.03;0.85;;;22.50;81.00;;;;;;5038402;28;19924;-69
2022/07/16 12:30:37;;;;;;;2.90;0.82;;;22.60;81.30;;;;;;5045282;28;20559;-70
2022/07/16 12:33:21;;;;;;;3.60;0.90;;;22.50;79.60;;;;;;5027765;28;20056;-73
2022/07/16 12:36:05;;;;;;;2.78;0.80;;;22.60;81.00;;;;;;5051776;28;20094;-74
2022/07/16 12:38:54;;;;;;;2.28;0.85;;;22.70;80.50;;;;;;5050245;28;20134;-70
2022/07/16 12:41:26;;;;;;;4.78;0.90;;;22.80;79.00;;;;;;5050074;28;20040;-69
2022/07/16 12:43:55;;;;;;;2.03;1.15;;;22.80;78.70;;;;;;5048268;28;20041;-70
2022/07/16 12:46:27;;;;;;;4.22;1.00;;;23.20;80.50;;;;;;5045627;28;20557;-68
2022/07/16 12:49:04;;;;;;;5.82;1.30;;;23.10;79.70;;;;;;5046901;28;20060;-69
2022/07/16 12:51:39;;;;;;;2.60;0.90;;;22.70;79.70;;;;;;5055175;28;20148;-69
2022/07/16 12:54:06;;;;;;;5.75;0.93;;;22.50;80.20;;;;;;5056810;28;20037;-70